Lexington Weather

Lexington, Massachusetts, USA

53°F
10/17/2021 8:40pm 
  • Lexington Conditions: Clear
  • Temperature: 53.1°F / 11.7°CColder 1.0°F than last hour.
  • Dew Point: 47.7°FDecreased 0.1°Fsince last hour.
  • Relative Humidity: 82%Increased 3.0% since last hour.
  • Wind: Calm, 10-min avg: Calm, gust: 3 mph
  • Barometer: 29.67 inRising 0.02  inHg/hr Rising Slowly
  • Visibility: 10 miles
  • Rain Today: 0.35 in
  •   

Nearby Reports - Official Weather Stations - Current Conditions

Data from the National Weather Service

KBED - Bedford, MA


Distance from station: WNW 4mi, 6km

Updated Sun Oct 17, 2021 7:51pm EDT

Clear

Clear

Wind from W

Wind:

W 7 mph, 11 km/h

Temperature: 54°F (12°C)

Dew Point: 45°F (7°C)

Humidity: 72%

Barometer: 29.69 in (1005.4 hPa)

Clouds: Clear

Visibility: 10 miles (16 km)


2021/10/17 23:51 KBED 172351Z 26006KT 10SM CLR 12/07 A2969 RMK AO2 SLP068 T01170072 10178 20117 53013

KBOS - Boston, MA


Distance from station: ESE 12mi, 20km

Updated Sun Oct 17, 2021 7:54pm EDT

Few Clouds

Few Clouds

Wind from W

Wind:

W 13 mph, 20 km/h

Temperature: 57°F (14°C)

Dew Point: 45°F (7°C)

Humidity: 63%

Barometer: 29.70 in (1005.8 hPa)

Clouds: Few Clouds

Visibility: 10 miles (16 km)

Cloud details: Few Clouds 5000 ft


2021/10/17 23:54 KBOS 172354Z 28011KT 10SM FEW050 14/07 A2970 RMK AO2 SLP056 T01440067 10183 20144 53013

KOWD - Norwood, MA


Distance from station: SSE 18mi, 29km

Updated Sun Oct 17, 2021 7:53pm EDT

Few Clouds

Few Clouds

Wind from W

Wind:

W 6 mph, 9 km/h

Temperature: 54°F (12°C)

Dew Point: 45°F (7°C)

Humidity: 72%

Barometer: 29.71 in (1006.1 hPa)

Clouds: Few Clouds

Visibility: 10 miles (16 km)

Cloud details: Few Clouds 10000 ft


2021/10/17 23:53 KOWD 172353Z 26005KT 10SM FEW100 12/07 A2971 RMK AO2 SLP059 T01220072 10194 20122 53016

KBVY - Beverly, MA


Distance from station: ENE 19mi, 31km

Updated Sun Oct 17, 2021 7:53pm EDT

Clear

Clear

Wind from W

Wind:

W 5 mph, 7 km/h

Temperature: 54°F (12°C)

Dew Point: 45°F (7°C)

Humidity: 72%

Barometer: 29.68 in (1005.1 hPa)

Clouds: Clear

Visibility: 10 miles (16 km)


2021/10/17 23:53 KBVY 172353Z 27004KT 10SM CLR 12/07 A2968 RMK AO2 SLP047 T01220067 10172 20111 53012 $

KLWM - Lawrence, MA


Distance from station: NNE 20mi, 32km

Updated Sun Oct 17, 2021 7:54pm EDT

Clear

Clear

Wind from W

Wind:

W 7 mph, 11 km/h

Temperature: 54°F (12°C)

Dew Point: 45°F (7°C)

Humidity: 72%

Barometer: 29.71 in (1006.1 hPa)

Clouds: Clear

Visibility: 10 miles (16 km)


2021/10/17 23:54 KLWM 172354Z 26006KT 10SM CLR 12/07 A2971 RMK AO2 SLP060 T01220072 10178 20117 53013

KFIT - Fitchburg, MA


Distance from station: WNW 27mi, 44km

Updated Sun Oct 17, 2021 7:52pm EDT

Clear

Clear

Wind from WNW

Wind:

WNW 6 mph, 9 km/h

Temperature: 52°F (11°C)

Dew Point: 43°F (6°C)

Humidity: 72%

Barometer: 29.72 in (1006.4 hPa)

Clouds: Clear

Visibility: 10 miles (16 km)


2021/10/17 23:52 KFIT 172352Z AUTO 29005KT 10SM CLR 11/06 A2972 RMK AO2 SLP065 T01110061 10178 20106 51014

KASH - Nashua/Boire Fld, NH


Distance from station: NNW 28mi, 44km

Updated Sun Oct 17, 2021 7:56pm EDT

Partly cloudy

Partly cloudy

Wind from WSW

Wind:

WSW 7 mph, 11 km/h

Temperature: 54°F (12°C)

Dew Point: 46°F (8°C)

Humidity: 77%

Barometer: 29.70 in (1005.8 hPa)

Clouds: Partly cloudy

Visibility: 10 miles (16 km)

Cloud details: Partly cloudy 7000 ft


2021/10/17 23:56 KASH 172356Z 25006KT 10SM SCT070 12/08 A2970 RMK AO2 SLP063 T01170083 10172 20117 53014

KORH - Worcester, MA


Distance from station: WSW 34mi, 55km

Updated Sun Oct 17, 2021 7:54pm EDT

Clear

Clear

Wind from W

Wind:

W 9 mph, 15 km/h

Temperature: 48°F (9°C)

Wind Chill: 44°F (7°C)

Dew Point: 45°F (7°C)

Humidity: 87%

Barometer: 29.72 in (1006.4 hPa)

Clouds: Clear

Visibility: 10 miles (16 km)


2021/10/17 23:54 KORH 172354Z 27008KT 10SM CLR 09/07 A2972 RMK AO2 SLP069 60001 T00940072 10156 20094 53011 $

KMHT - Manchester, NH


Distance from station: NNW 35mi, 57km

Updated Sun Oct 17, 2021 7:53pm EDT

Few Clouds

Few Clouds

Wind from calm

Wind:

Calm

Temperature: 55°F (13°C)

Dew Point: 43°F (6°C)

Humidity: 63%

Barometer: 29.68 in (1005.1 hPa)

Clouds: Few Clouds

Visibility: 10 miles (16 km)

Cloud details: Few Clouds 7000 ft


2021/10/17 23:53 KMHT 172353Z 00000KT 10SM FEW070 13/06 A2968 RMK AO2 SLP062 T01280061 10172 20128 53012

KGHG - Marshfield, MA


Distance from station: SE 38mi, 60km

Updated Sun Oct 17, 2021 8:15pm EDT

Clear

Clear

Wind from W

Wind:

W 5 mph, 7 km/h

Temperature: 52°F (11°C)

Dew Point: 46°F (8°C)

Humidity: 82%

Barometer: 29.70 in (1005.8 hPa)

Clouds: Clear

Visibility: 10 miles (16 km)


2021/10/18 00:15 KGHG 180015Z AUTO 26004KT 10SM CLR 11/08 A2970 RMK AO2

KSFZ - Pawtucket, RI


Distance from station: SSW 39mi, 62km

Updated Sun Oct 17, 2021 7:56pm EDT

Few Clouds

Few Clouds

Wind from W

Wind:

W 6 mph, 9 km/h

Temperature: 50°F (10°C)

Wind Chill: 48°F (9°C)

Dew Point: 46°F (8°C)

Humidity: 88%

Barometer: 29.73 in (1006.8 hPa)

Clouds: Few Clouds

Visibility: 10 miles (16 km)

Cloud details: Few Clouds 9500 ft


2021/10/17 23:56 KSFZ 172356Z AUTO 27005KT 10SM FEW095 10/08 A2973 RMK AO2 SLP076 6//// T01000078 10172 20094 51015 PNO $

KTAN - Taunton, MA


Distance from station: SSE 40mi, 65km

Updated Sun Oct 17, 2021 7:52pm EDT

Clear

Clear

Wind from W

Wind:

W 3 mph, 6 km/h

Temperature: 52°F (11°C)

Dew Point: 46°F (8°C)

Humidity: 82%

Barometer: 29.72 in (1006.4 hPa)

Clouds: Clear

Visibility: 10 miles (16 km)


2021/10/17 23:52 KTAN 172352Z AUTO 26003KT 10SM CLR 11/08 A2972 RMK AO2 SLP063 T01060078 10189 20100 53017

KPYM - Plymouth, MA


Distance from station: SE 44mi, 72km

Updated Sun Oct 17, 2021 7:52pm EDT

Clear

Clear

Wind from W

Wind:

W 8 mph, 13 km/h

Temperature: 55°F (13°C)

Dew Point: 45°F (7°C)

Humidity: 67%

Barometer: 29.71 in (1006.1 hPa)

Clouds: Clear

Visibility: 10 miles (16 km)


2021/10/17 23:52 KPYM 172352Z AUTO 27007KT 10SM CLR 13/07 A2971 RMK AO2 SLP059 T01280072 10183 20117 53015

KAFN - Jaffrey, NH


Distance from station: WNW 46mi, 74km

Updated Sun Oct 17, 2021 7:52pm EDT

Clear

Clear

Wind from W

Wind:

W 5 mph, 7 km/h

Temperature: 52°F (11°C)

Dew Point: 45°F (7°C)

Humidity: 77%

Barometer: 29.71 in (1006.1 hPa)

Clouds: Clear

Visibility: 10 miles (16 km)


2021/10/17 23:52 KAFN 172352Z AUTO 26004KT 10SM CLR 11/07 A2971 RMK AO2 SLP069 T01060067 10161 20106 53011

KPSM - Portsmouth/Pease, NH


Distance from station: NNE 48mi, 78km

Updated Sun Oct 17, 2021 7:56pm EDT

Mostly cloudy

Mostly cloudy

Wind from calm

Wind:

Calm

Temperature: 52°F (11°C)

Dew Point: 43°F (6°C)

Humidity: 72%

Barometer: 29.69 in (1005.4 hPa)

Clouds: Mostly cloudy

Visibility: 10 miles (16 km)

Cloud details: Mostly cloudy 7000 ft


2021/10/17 23:56 KPSM 172356Z 00000KT 10SM BKN070 11/06 A2969 RMK AO2A SLP057 T01120059 10173 20107 52012

KPVD - Providence/Green, RI


Distance from station: S 51mi, 82km

Updated Sun Oct 17, 2021 7:51pm EDT

Few Clouds

Few Clouds

Wind from W

Wind:

W 6 mph, 9 km/h

Temperature: 54°F (12°C)

Dew Point: 46°F (8°C)

Humidity: 77%

Barometer: 29.74 in (1007.1 hPa)

Clouds: Few Clouds

Visibility: 10 miles (16 km)

Cloud details: Few Clouds 7500 ft
Few Clouds 11000 ft


2021/10/17 23:51 KPVD 172351Z 27005KT 10SM FEW075 FEW110 12/08 A2974 RMK AO2 SLP069 60000 T01220083 10189 20122 53017

KCON - Concord, NH


Distance from station: NNW 54mi, 87km

Updated Sun Oct 17, 2021 7:51pm EDT

Mostly cloudy

Mostly cloudy

Wind from SW

Wind:

SW 3 mph, 6 km/h

Temperature: 52°F (11°C)

Dew Point: 45°F (7°C)

Humidity: 77%

Barometer: 29.69 in (1005.4 hPa)

Clouds: Mostly cloudy

Visibility: 10 miles (16 km)

Cloud details: Partly cloudy 5000 ft
Mostly cloudy 6000 ft


2021/10/17 23:51 KCON 172351Z AUTO 23003KT 10SM SCT050 BKN060 11/07 A2969 RMK AO2 RAB17E42 SLP054 P0000 60000 T01110067 10172 20100 53012

KEWB - New Bedford, MA


Distance from station: SSE 54mi, 87km

Updated Sun Oct 17, 2021 7:53pm EDT

Few Clouds

Few Clouds

Wind from W

Wind:

W 6 mph, 9 km/h

Temperature: 54°F (12°C)

Dew Point: 46°F (8°C)

Humidity: 77%

Barometer: 29.72 in (1006.4 hPa)

Clouds: Few Clouds

Visibility: 10 miles (16 km)

Cloud details: Few Clouds 7000 ft


2021/10/17 23:53 KEWB 172353Z 28005KT 10SM FEW070 12/08 A2972 RMK AO2 SLP062 T01220078 10189 20122 53017 $

KORE - Orange, Massachusetts, USA


Distance from station: W 54mi, 87km

Updated Sun Oct 17, 2021 7:52pm EDT

Clear

Clear

Wind from W

Wind:

W 7 mph, 11 km/h

Temperature: 52°F (11°C)

Dew Point: 43°F (6°C)

Humidity: 72%

Barometer: 29.73 in (1006.8 hPa)

Clouds: Clear

Visibility: 10 miles (16 km)


2021/10/17 23:52 KORE 172352Z AUTO 28006KT 10SM CLR 11/06 A2973 RMK AO2 SLP070 60000 T01060061 10156 20100 51009

KPVC - Provincetown, Massachusetts, USA


Distance from station: ESE 58mi, 94km

Updated Sun Oct 17, 2021 7:56pm EDT

Partly cloudy

Partly cloudy

Wind from W

Wind:

W 10 mph, 17 km/h

Temperature: 59°F (15°C)

Dew Point: 45°F (7°C)

Humidity: 59%

Barometer: 29.70 in (1005.8 hPa)

Clouds: Partly cloudy

Visibility: 10 miles (16 km)

Cloud details: Partly cloudy 5500 ft


2021/10/17 23:56 KPVC 172356Z AUTO 28009KT 10SM SCT055 15/07 A2970 RMK AO2 SLP057 T01500072 10172 20150 53012

KCEF - Chicopee/Westover, Massachusetts, USA


Distance from station: WSW 67mi, 108km

Updated Sun Oct 17, 2021 7:56pm EDT

Mostly cloudy

Mostly cloudy

Wind from WSW

Wind:

WSW 12 mph, 19 km/h

Temperature: 54°F (12°C)

Dew Point: 43°F (6°C)

Humidity: 67%

Barometer: 29.74 in (1007.1 hPa)

Clouds: Mostly cloudy

Visibility: 10 miles (16 km)

Cloud details: Few Clouds 8000 ft
Mostly cloudy 13000 ft
Mostly cloudy 15000 ft


2021/10/17 23:56 KCEF 172356Z 25010KT 10SM FEW080 BKN130 BKN150 12/06 A2974 RMK AO2A SLP078 60000 T01180061 10175 20116 52015

KMWN - Mount Washington, NH


Distance from station: N 126mi, 203km

Updated Sun Oct 17, 2021 7:48pm EDT

Freezing fog, Overcast

Freezing fog, Overcast

Wind from WNW

Wind:

WNW 49 mph, 80 km/h

Temperature: 28°F (-2°C)

Wind Chill: 9°F (-13°C)

Dew Point: 28°F (-2°C)

Humidity: 100%

Summary: Freezing Fog

Clouds: Overcast

Visibility: 1/16 mile (0 km)

Cloud details: Overcast 100 ft


2021/10/17 23:48 KMWN 172348Z 29043KT 1/16SM FZFG VV001 M02/M02 RMK VRY LGT ICG 11013 21023

KFUL - Fullerton, California, USA


Distance from station: W 2235mi, 4139km

Updated Sun Oct 17, 2021 4:53pm PDT

Clear

Clear

Wind from varies

Wind:

varies 7 mph, 11 km/h

Temperature: 72°F (22°C)

Dew Point: 54°F (12°C)

Humidity: 53%

Barometer: 29.93 in (1013.5 hPa)

Clouds: Clear

Visibility: 10 miles (16 km)


2021/10/17 23:53 KFUL 172353Z VRB06KT 10SM CLR 22/12 A2993 RMK AO2 SLP134 T02170122 10261 20217 55004